Time;durP1;ratioP1;P1;durP2;ratioP2;P2;SDS_P1;SDS_P2;PMS_P1;PMS_P2;Temp;Humidity;BMP_temperature;BMP_pressure;BME280_temperature;BME280_humidity;BME280_pressure;Samples;Min_cycle;Max_cycle;Signal;HPM_P1;HPM_P2
2020/12/21 00:01:56;;;;;;;5.35;4.82;;;17.90;48.30;;;;;;5035283;28;20048;-72
2020/12/21 00:04:23;;;;;;;8.43;5.50;;;17.80;47.80;;;;;;5034405;28;20328;-72
2020/12/21 00:06:57;;;;;;;4.90;3.92;;;17.70;48.50;;;;;;5016243;28;20049;-72
2020/12/21 00:09:23;;;;;;;4.13;3.70;;;17.70;49.50;;;;;;5031438;28;20036;-72
2020/12/21 00:11:51;;;;;;;5.10;4.55;;;17.70;49.40;;;;;;5031085;28;20601;-71
2020/12/21 00:14:18;;;;;;;4.43;4.03;;;17.70;49.20;;;;;;5031153;28;20056;-72
2020/12/21 00:16:46;;;;;;;5.10;4.25;;;17.60;49.10;;;;;;5029684;28;20036;-72
2020/12/21 00:19:18;;;;;;;5.63;3.50;;;17.50;48.60;;;;;;5011669;28;20034;-71
2020/12/21 00:21:46;;;;;;;4.05;3.20;;;17.60;49.40;;;;;;5030914;28;20063;-72
2020/12/21 00:24:13;;;;;;;3.08;2.78;;;17.50;49.10;;;;;;5031004;28;20056;-71
2020/12/21 00:26:44;;;;;;;8.43;4.13;;;17.40;49.60;;;;;;5011269;28;20025;-72
2020/12/21 00:29:11;;;;;;;5.30;3.80;;;17.50;52.10;;;;;;5032565;28;20025;-73
2020/12/21 00:31:37;;;;;;;4.90;3.83;;;17.40;50.40;;;;;;5029917;28;20029;-71
2020/12/21 00:34:05;;;;;;;8.95;3.78;;;17.20;50.50;;;;;;5027669;28;20037;-74
2020/12/21 00:36:37;;;;;;;5.82;3.80;;;17.10;50.80;;;;;;5034191;28;20108;-71
2020/12/21 00:39:05;;;;;;;4.30;3.60;;;16.90;51.00;;;;;;5032704;28;20085;-73
2020/12/21 00:41:31;;;;;;;8.07;3.67;;;16.70;51.40;;;;;;5028172;28;20041;-73
2020/12/21 00:43:58;;;;;;;4.20;3.80;;;16.60;51.40;;;;;;5027303;28;20505;-73
2020/12/21 00:46:27;;;;;;;8.82;3.67;;;16.40;51.60;;;;;;5032349;28;20036;-73
2020/12/21 00:48:55;;;;;;;5.60;3.80;;;16.20;51.70;;;;;;5034845;28;20087;-73
2020/12/21 00:51:22;;;;;;;9.75;4.55;;;16.10;52.20;;;;;;5026282;28;20022;-73
2020/12/21 00:53:49;;;;;;;4.30;3.03;;;15.90;52.40;;;;;;5027994;28;20112;-73
2020/12/21 00:56:17;;;;;;;4.43;3.22;;;15.70;52.60;;;;;;5027728;28;20061;-73
2020/12/21 00:58:45;;;;;;;4.97;4.07;;;15.50;52.70;;;;;;5030201;28;20112;-74
2020/12/21 01:01:18;;;;;;;7.90;4.38;;;15.40;53.00;;;;;;5028410;28;20526;-74
2020/12/21 01:03:44;;;;;;;6.05;3.92;;;15.20;53.00;;;;;;5033216;28;20489;-73
2020/12/21 01:06:13;;;;;;;5.20;4.65;;;15.10;53.20;;;;;;5033589;28;20021;-73
2020/12/21 01:08:40;;;;;;;5.20;4.45;;;15.00;53.40;;;;;;5028258;28;20064;-73
2020/12/21 01:11:10;;;;;;;8.50;4.22;;;14.90;53.70;;;;;;5032013;28;20024;-72
2020/12/21 01:13:39;;;;;;;9.82;4.15;;;14.80;53.40;;;;;;5023830;28;20052;-73
2020/12/21 01:16:06;;;;;;;8.32;3.40;;;14.70;53.40;;;;;;5027528;28;20032;-73
2020/12/21 01:18:34;;;;;;;5.85;4.10;;;14.70;53.60;;;;;;5029075;28;20033;-72
2020/12/21 01:21:01;;;;;;;10.43;5.05;;;14.60;53.50;;;;;;5025405;28;20459;-73
2020/12/21 01:23:27;;;;;;;5.45;4.15;;;14.60;53.60;;;;;;5032409;28;20056;-73
2020/12/21 01:25:54;;;;;;;8.90;5.07;;;14.40;53.60;;;;;;5028571;28;20036;-74
2020/12/21 01:28:20;;;;;;;6.95;4.40;;;14.30;53.80;;;;;;5032859;28;20041;-73
2020/12/21 01:30:47;;;;;;;4.90;3.92;;;14.20;54.10;;;;;;5034615;28;20470;-73
2020/12/21 01:33:13;;;;;;;10.60;5.65;;;14.10;54.00;;;;;;5034088;28;20455;-74
2020/12/21 01:35:40;;;;;;;5.20;3.90;;;13.90;54.20;;;;;;5037587;28;20044;-73
2020/12/21 01:38:06;;;;;;;7.47;5.28;;;13.70;54.40;;;;;;5029152;28;20021;-73
2020/12/21 01:40:33;;;;;;;10.98;4.75;;;13.50;55.00;;;;;;5027961;28;20497;-72
2020/12/21 01:43:00;;;;;;;6.05;4.20;;;13.40;55.10;;;;;;5037984;28;20079;-73
2020/12/21 01:45:26;;;;;;;7.15;4.20;;;13.40;55.70;;;;;;5034765;28;20021;-73
2020/12/21 01:47:53;;;;;;;9.85;4.25;;;13.60;56.00;;;;;;5035853;28;20022;-73
2020/12/21 01:50:19;;;;;;;8.20;4.50;;;13.50;55.30;;;;;;5038887;28;20021;-73
2020/12/21 01:52:46;;;;;;;7.00;5.25;;;13.40;56.00;;;;;;5033101;28;20083;-73
2020/12/21 01:55:12;;;;;;;5.57;4.90;;;13.40;55.80;;;;;;5037213;28;20026;-73
2020/12/21 01:57:39;;;;;;;6.05;5.07;;;13.40;56.00;;;;;;5036658;28;20018;-73
2020/12/21 02:00:07;;;;;;;7.78;5.30;;;13.40;56.10;;;;;;5032864;28;20030;-74
2020/12/21 02:02:34;;;;;;;6.38;4.40;;;13.30;56.30;;;;;;5035138;28;20083;-74
2020/12/21 02:05:02;;;;;;;5.65;4.55;;;13.30;56.10;;;;;;5036237;28;20040;-75
2020/12/21 02:07:29;;;;;;;9.07;4.88;;;13.30;56.40;;;;;;5014424;28;20034;-74
2020/12/21 02:09:56;;;;;;;5.40;4.80;;;13.10;56.40;;;;;;5036218;28;20033;-73
2020/12/21 02:12:22;;;;;;;6.75;4.43;;;13.10;56.50;;;;;;5036650;28;20029;-73
2020/12/21 02:14:49;;;;;;;9.95;4.65;;;13.10;56.80;;;;;;5037896;28;20022;-73
2020/12/21 02:17:16;;;;;;;6.70;4.15;;;13.00;56.90;;;;;;5035276;28;20026;-73
2020/12/21 02:19:42;;;;;;;5.97;4.63;;;12.90;56.80;;;;;;5036510;28;20021;-72
2020/12/21 02:22:11;;;;;;;7.40;4.50;;;12.80;57.10;;;;;;5035798;28;20014;-73
2020/12/21 02:24:39;;;;;;;11.32;4.90;;;12.70;57.10;;;;;;5035541;28;20022;-73
2020/12/21 02:27:06;;;;;;;7.35;5.38;;;12.70;57.70;;;;;;5035940;28;20049;-73
2020/12/21 02:29:33;;;;;;;6.35;5.05;;;12.70;57.90;;;;;;5036842;28;20045;-73
2020/12/21 02:31:59;;;;;;;7.10;5.97;;;12.80;57.60;;;;;;5034304;28;20036;-73
2020/12/21 02:34:27;;;;;;;5.82;4.53;;;12.70;57.70;;;;;;5036509;28;20362;-74
2020/12/21 02:36:54;;;;;;;7.80;5.70;;;12.70;57.90;;;;;;5036709;28;20025;-73
2020/12/21 02:39:22;;;;;;;14.88;6.00;;;12.70;57.40;;;;;;5036414;28;20033;-72
2020/12/21 02:41:49;;;;;;;6.40;4.47;;;12.50;57.50;;;;;;5036133;28;20104;-73
2020/12/21 02:44:16;;;;;;;9.38;6.47;;;12.40;58.00;;;;;;5036721;28;20468;-73
2020/12/21 02:46:44;;;;;;;6.88;5.93;;;12.40;58.10;;;;;;5036643;28;20463;-72
2020/12/21 02:49:12;;;;;;;8.50;5.25;;;12.30;58.30;;;;;;5030084;28;20065;-74
2020/12/21 02:51:38;;;;;;;5.60;4.72;;;12.20;58.10;;;;;;5036536;28;20033;-74
2020/12/21 02:54:05;;;;;;;9.18;5.97;;;12.10;58.30;;;;;;5037064;28;20036;-73
2020/12/21 02:56:31;;;;;;;8.13;6.03;;;12.20;58.70;;;;;;5036974;28;20044;-73
2020/12/21 02:58:58;;;;;;;12.10;5.75;;;12.20;58.50;;;;;;5036299;28;20088;-73
2020/12/21 03:01:24;;;;;;;10.98;6.75;;;12.30;58.60;;;;;;5036173;28;20367;-73
2020/12/21 03:03:50;;;;;;;13.57;5.75;;;12.20;58.40;;;;;;5036826;28;20022;-72
2020/12/21 03:06:17;;;;;;;9.32;6.05;;;12.10;58.40;;;;;;5019331;28;20050;-72
2020/12/21 03:08:43;;;;;;;9.30;5.90;;;12.10;59.00;;;;;;5018510;28;20041;-73
2020/12/21 03:11:10;;;;;;;6.90;5.78;;;12.10;59.20;;;;;;5036085;28;20025;-75
2020/12/21 03:13:37;;;;;;;8.77;5.45;;;12.00;58.80;;;;;;5033493;28;20025;-73
2020/12/21 03:16:05;;;;;;;10.52;5.65;;;12.00;59.30;;;;;;5030269;28;20325;-73
2020/12/21 03:18:31;;;;;;;8.27;5.28;;;11.90;59.30;;;;;;5027985;28;20025;-74
2020/12/21 03:20:58;;;;;;;17.13;6.30;;;11.90;59.60;;;;;;5029286;28;20033;-73
2020/12/21 03:23:24;;;;;;;7.30;5.97;;;11.80;59.20;;;;;;5035819;28;20076;-74
2020/12/21 03:25:50;;;;;;;10.48;7.20;;;11.70;59.40;;;;;;5036191;28;20022;-74
2020/12/21 03:28:17;;;;;;;9.88;6.32;;;11.70;59.60;;;;;;5034456;28;20200;-73
2020/12/21 03:30:44;;;;;;;7.57;5.95;;;11.80;60.10;;;;;;5019085;28;20125;-73
2020/12/21 03:33:10;;;;;;;11.90;5.90;;;11.90;59.70;;;;;;5035157;28;20033;-74
2020/12/21 03:35:37;;;;;;;10.82;6.32;;;11.80;60.40;;;;;;5034219;28;20026;-73
2020/12/21 03:38:03;;;;;;;6.60;5.82;;;11.80;60.00;;;;;;5030374;28;20021;-73
2020/12/21 03:40:30;;;;;;;9.98;6.80;;;11.70;60.50;;;;;;5033519;28;20021;-73
2020/12/21 03:42:56;;;;;;;7.35;5.38;;;11.70;60.10;;;;;;5036524;28;20064;-74
2020/12/21 03:45:23;;;;;;;7.63;6.03;;;11.60;60.00;;;;;;5036847;28;20059;-74
2020/12/21 03:47:49;;;;;;;7.70;5.15;;;11.60;60.40;;;;;;5035648;28;20092;-73
2020/12/21 03:50:18;;;;;;;9.30;7.20;;;11.50;60.40;;;;;;5035040;28;20053;-74
2020/12/21 03:52:45;;;;;;;6.38;4.85;;;11.50;60.90;;;;;;5033818;28;20458;-74
2020/12/21 03:55:11;;;;;;;6.75;6.05;;;11.50;60.60;;;;;;5035840;28;20056;-74
2020/12/21 03:57:38;;;;;;;7.60;6.18;;;11.30;60.40;;;;;;5035195;28;20172;-73
2020/12/21 04:00:07;;;;;;;10.35;5.47;;;11.20;60.80;;;;;;5035382;28;20025;-74
2020/12/21 04:02:34;;;;;;;13.98;5.25;;;11.30;61.20;;;;;;5027080;28;20021;-74
2020/12/21 04:05:09;;;;;;;7.72;5.85;;;11.30;60.90;;;;;;5016667;28;20124;-74
2020/12/21 04:07:36;;;;;;;8.70;6.35;;;11.30;61.00;;;;;;5024469;28;20033;-74
2020/12/21 04:10:05;;;;;;;8.55;7.65;;;11.30;61.30;;;;;;5033704;28;20033;-73
2020/12/21 04:12:32;;;;;;;12.82;7.25;;;11.30;61.10;;;;;;5024798;28;20459;-73
2020/12/21 04:14:58;;;;;;;8.20;7.40;;;11.20;61.30;;;;;;5033453;28;20422;-73
2020/12/21 04:17:24;;;;;;;8.68;6.00;;;11.20;62.20;;;;;;5017281;28;20051;-76
2020/12/21 04:19:51;;;;;;;9.40;6.60;;;11.30;62.00;;;;;;5035343;28;20036;-75
2020/12/21 04:22:17;;;;;;;8.70;6.40;;;11.20;61.60;;;;;;5016051;28;20062;-72
2020/12/21 04:24:43;;;;;;;6.18;5.15;;;11.10;61.50;;;;;;5033815;28;20029;-72
2020/12/21 04:27:10;;;;;;;8.98;5.47;;;10.90;62.00;;;;;;5034152;28;20033;-74
2020/12/21 04:29:36;;;;;;;7.85;5.45;;;10.90;62.40;;;;;;5035122;28;20029;-73
2020/12/21 04:32:04;;;;;;;9.05;6.05;;;10.80;62.20;;;;;;5031312;28;20056;-71
2020/12/21 04:34:31;;;;;;;9.15;6.63;;;10.90;62.50;;;;;;5016050;28;20096;-73
2020/12/21 04:36:57;;;;;;;6.28;5.68;;;11.00;62.80;;;;;;5017558;28;20028;-73
2020/12/21 04:39:23;;;;;;;8.85;5.50;;;10.90;62.70;;;;;;5028445;28;20025;-72
2020/12/21 04:41:54;;;;;;;8.60;5.95;;;10.90;63.00;;;;;;5034884;28;20155;-72
2020/12/21 04:44:22;;;;;;;7.80;5.20;;;11.00;63.40;;;;;;5017518;28;20029;-72
2020/12/21 04:46:53;;;;;;;7.75;5.50;;;10.90;63.20;;;;;;5032230;28;20103;-73
2020/12/21 04:49:20;;;;;;;7.55;5.57;;;11.00;63.20;;;;;;5032433;28;20036;-73
2020/12/21 04:51:47;;;;;;;6.93;5.47;;;10.90;63.50;;;;;;5034290;28;20022;-73
2020/12/21 04:54:14;;;;;;;6.75;5.80;;;10.90;63.20;;;;;;5034941;28;20490;-72
2020/12/21 04:56:42;;;;;;;8.40;6.40;;;10.80;63.40;;;;;;5034411;28;20021;-72
2020/12/21 04:59:10;;;;;;;8.65;5.45;;;10.80;63.50;;;;;;5033880;28;20162;-73
2020/12/21 05:01:37;;;;;;;7.90;5.82;;;10.80;64.10;;;;;;5017575;28;20040;-73
2020/12/21 05:04:04;;;;;;;7.63;6.43;;;10.80;64.30;;;;;;5017463;28;20029;-73
2020/12/21 05:06:31;;;;;;;7.93;6.13;;;10.80;64.10;;;;;;5031775;28;20021;-73
2020/12/21 05:09:08;;;;;;;5.90;5.20;;;10.80;64.10;;;;;;5035541;28;20414;-73
2020/12/21 05:11:38;;;;;;;6.50;5.13;;;10.80;64.20;;;;;;5017925;28;20026;-72
2020/12/21 05:14:09;;;;;;;5.68;5.18;;;10.70;64.00;;;;;;5024083;28;20026;-73
2020/12/21 05:16:36;;;;;;;11.30;5.10;;;10.70;64.70;;;;;;5030824;28;20086;-73
2020/12/21 05:19:03;;;;;;;8.80;5.45;;;10.80;64.60;;;;;;5014852;28;20013;-73
2020/12/21 05:21:30;;;;;;;6.13;4.75;;;10.80;64.40;;;;;;5013520;28;20040;-74
2020/12/21 05:24:01;;;;;;;11.98;4.97;;;10.70;64.60;;;;;;5029212;28;20140;-78
2020/12/21 05:26:32;;;;;;;7.47;5.97;;;10.70;64.40;;;;;;5035354;28;20025;-75
2020/12/21 05:29:02;;;;;;;5.32;4.82;;;10.70;64.90;;;;;;5031378;28;20112;-73
2020/12/21 05:31:28;;;;;;;5.80;5.30;;;10.70;64.80;;;;;;5017184;28;20048;-75
2020/12/21 05:33:54;;;;;;;13.70;6.95;;;10.70;64.80;;;;;;5031918;28;20025;-73
2020/12/21 05:36:23;;;;;;;11.95;6.22;;;10.70;64.80;;;;;;5028522;28;20033;-73
2020/12/21 05:39:06;;;;;;;9.40;6.50;;;10.70;64.70;;;;;;5029866;28;20022;-73
2020/12/21 05:41:33;;;;;;;8.02;5.30;;;10.70;64.80;;;;;;5017120;28;20414;-73
2020/12/21 05:44:06;;;;;;;5.90;5.25;;;10.70;64.70;;;;;;5032519;28;20103;-73
2020/12/21 05:46:33;;;;;;;8.27;5.50;;;10.70;64.70;;;;;;5034535;28;20034;-73
2020/12/21 05:49:00;;;;;;;6.55;5.82;;;10.60;64.30;;;;;;5034175;28;20474;-74
2020/12/21 05:51:37;;;;;;;6.20;5.63;;;10.50;64.70;;;;;;5034600;28;20033;-73
2020/12/21 05:54:06;;;;;;;8.32;6.22;;;10.50;64.90;;;;;;5033222;28;20026;-73
2020/12/21 05:56:34;;;;;;;7.82;5.57;;;10.50;64.70;;;;;;5035027;28;20033;-74
2020/12/21 05:59:01;;;;;;;11.98;6.38;;;10.50;64.70;;;;;;5034854;28;20029;-75
2020/12/21 06:01:27;;;;;;;8.32;6.55;;;10.40;64.90;;;;;;5034951;28;20026;-74
2020/12/21 06:03:55;;;;;;;8.05;6.25;;;10.30;65.50;;;;;;5031459;28;20466;-75
2020/12/21 06:06:26;;;;;;;9.05;6.57;;;10.40;65.20;;;;;;5014785;28;20120;-73
2020/12/21 06:08:58;;;;;;;7.22;6.63;;;10.30;65.40;;;;;;5037242;28;20547;-73
2020/12/21 06:11:31;;;;;;;8.63;6.20;;;10.30;65.70;;;;;;5034308;28;20034;-73
2020/12/21 06:14:06;;;;;;;8.50;7.65;;;10.30;65.30;;;;;;5027678;28;20064;-73
2020/12/21 06:16:35;;;;;;;8.75;6.65;;;10.30;65.40;;;;;;5022863;28;20034;-74
2020/12/21 06:19:06;;;;;;;9.57;6.82;;;10.20;65.80;;;;;;5016930;28;20156;-73
2020/12/21 06:21:42;;;;;;;8.38;6.88;;;10.10;65.60;;;;;;5035795;28;20025;-73
2020/12/21 06:24:17;;;;;;;7.32;6.40;;;10.20;66.20;;;;;;5036966;28;20455;-72
2020/12/21 06:26:44;;;;;;;7.88;6.63;;;10.20;65.80;;;;;;5032131;28;20072;-72
2020/12/21 06:29:15;;;;;;;9.02;6.53;;;10.10;65.70;;;;;;5035186;28;20029;-72
2020/12/21 06:31:53;;;;;;;8.82;6.78;;;10.10;66.10;;;;;;5019305;28;20091;-74
2020/12/21 06:34:29;;;;;;;7.68;6.53;;;10.10;66.00;;;;;;5024195;28;20058;-76
2020/12/21 06:37:09;;;;;;;10.07;6.20;;;10.10;66.50;;;;;;5025167;28;20051;-73
2020/12/21 06:39:37;;;;;;;6.55;5.43;;;10.10;66.10;;;;;;5015741;28;20363;-72
2020/12/21 06:42:14;;;;;;;6.82;6.03;;;10.10;65.80;;;;;;5019141;28;20125;-73
2020/12/21 06:44:43;;;;;;;8.85;5.95;;;10.00;65.70;;;;;;5038511;28;20087;-73
2020/12/21 06:47:11;;;;;;;9.52;6.70;;;9.90;66.10;;;;;;5019049;28;20025;-73
2020/12/21 06:49:38;;;;;;;6.53;5.88;;;9.90;65.80;;;;;;5037046;28;20022;-73
2020/12/21 06:52:04;;;;;;;8.68;5.75;;;9.80;66.20;;;;;;5037095;28;20400;-73
2020/12/21 06:54:31;;;;;;;6.53;5.88;;;9.60;66.20;;;;;;5034063;28;20041;-73
2020/12/21 06:56:58;;;;;;;13.00;6.60;;;9.70;67.00;;;;;;5031366;28;20029;-72
2020/12/21 06:59:26;;;;;;;7.78;6.70;;;9.70;67.10;;;;;;5031387;28;20451;-72
2020/12/21 07:01:54;;;;;;;7.05;6.35;;;9.60;66.50;;;;;;5033275;28;20532;-73
2020/12/21 07:04:22;;;;;;;11.10;6.38;;;9.70;67.30;;;;;;5034554;28;20040;-73
2020/12/21 07:06:49;;;;;;;8.77;6.60;;;9.90;67.00;;;;;;5032298;28;20029;-73
2020/12/21 07:09:25;;;;;;;13.48;6.55;;;9.90;66.70;;;;;;5033232;28;20122;-72
2020/12/21 07:11:57;;;;;;;9.63;6.38;;;9.80;66.30;;;;;;5018375;28;20026;-73
2020/12/21 07:14:25;;;;;;;11.57;7.15;;;9.70;66.60;;;;;;5033962;28;20053;-73
2020/12/21 07:17:10;;;;;;;7.47;6.78;;;9.70;66.80;;;;;;5034399;28;20026;-73
2020/12/21 07:19:42;;;;;;;9.85;7.05;;;9.60;66.80;;;;;;5028495;28;20400;-73
2020/12/21 07:22:12;;;;;;;8.80;7.22;;;9.60;67.20;;;;;;5036667;28;20029;-73
2020/12/21 07:24:40;;;;;;;8.90;6.18;;;9.60;67.10;;;;;;5032176;28;20040;-73
2020/12/21 07:27:07;;;;;;;11.25;6.90;;;9.70;67.10;;;;;;5030905;28;20034;-73
2020/12/21 07:29:34;;;;;;;17.02;7.28;;;9.70;66.60;;;;;;5031369;28;20310;-73
2020/12/21 07:32:02;;;;;;;10.48;6.72;;;9.80;66.70;;;;;;5034871;28;20358;-73
2020/12/21 07:34:28;;;;;;;9.05;7.30;;;9.70;67.10;;;;;;5036321;28;20117;-73
2020/12/21 07:36:56;;;;;;;7.18;6.10;;;9.70;67.00;;;;;;5034987;28;20021;-75
2020/12/21 07:39:22;;;;;;;9.25;7.45;;;9.80;66.80;;;;;;5031369;28;20045;-73
2020/12/21 07:42:03;;;;;;;8.20;6.90;;;9.70;66.80;;;;;;5034213;28;20463;-74
2020/12/21 07:44:32;;;;;;;8.88;7.13;;;9.70;67.20;;;;;;5036857;28;20039;-74
2020/12/21 07:47:15;;;;;;;9.25;7.05;;;9.60;67.30;;;;;;5035321;28;20029;-73
2020/12/21 07:49:42;;;;;;;;;;;9.60;67.60;;;;;;5035006;28;20104;-73
2020/12/21 07:52:10;;;;;;;8.07;5.85;;;9.60;67.30;;;;;;5037117;28;19912;-73
2020/12/21 07:54:42;;;;;;;9.35;6.85;;;9.50;67.50;;;;;;5036384;28;20117;-72
2020/12/21 07:57:10;;;;;;;8.13;6.28;;;9.50;68.30;;;;;;5034233;28;20021;-74
2020/12/21 07:59:36;;;;;;;9.63;6.70;;;9.60;67.70;;;;;;5033321;28;20052;-73
2020/12/21 08:02:05;;;;;;;7.80;6.72;;;9.60;67.50;;;;;;5019098;28;20017;-74
2020/12/21 08:04:32;;;;;;;7.65;6.47;;;9.50;67.40;;;;;;5032193;28;20045;-73
2020/12/21 08:07:12;;;;;;;7.15;6.47;;;9.40;67.50;;;;;;5017517;28;20040;-73
2020/12/21 08:09:44;;;;;;;10.35;6.85;;;9.40;67.20;;;;;;5036345;28;20040;-73
2020/12/21 08:12:12;;;;;;;8.77;6.45;;;9.40;67.60;;;;;;5036454;28;20036;-73
2020/12/21 08:14:40;;;;;;;12.40;7.63;;;9.40;67.60;;;;;;5029604;28;20026;-73
2020/12/21 08:17:12;;;;;;;9.63;6.88;;;9.30;68.10;;;;;;5034510;28;20021;-74
2020/12/21 08:19:54;;;;;;;12.18;7.05;;;9.30;67.70;;;;;;5035576;28;20474;-73
2020/12/21 08:22:25;;;;;;;8.73;7.32;;;9.20;68.00;;;;;;5034875;28;20044;-73
2020/12/21 08:25:11;;;;;;;8.50;6.93;;;9.10;67.90;;;;;;5035261;28;20029;-73
2020/12/21 08:27:41;;;;;;;8.07;7.30;;;9.10;68.50;;;;;;5023136;28;20069;-72
2020/12/21 08:30:12;;;;;;;10.40;8.05;;;9.20;68.80;;;;;;5033715;28;20025;-74
2020/12/21 08:32:39;;;;;;;10.20;7.18;;;9.30;68.80;;;;;;5034994;28;20025;-73
2020/12/21 08:35:06;;;;;;;11.30;7.78;;;9.30;68.40;;;;;;5034086;28;20022;-74
2020/12/21 08:37:33;;;;;;;7.97;7.18;;;9.30;68.00;;;;;;5024919;28;20032;-74
2020/12/21 08:40:22;;;;;;;7.93;7.22;;;9.20;68.40;;;;;;5016519;28;20140;-74
2020/12/21 08:42:48;;;;;;;9.05;7.53;;;9.30;68.40;;;;;;5032678;28;20427;-74
2020/12/21 08:45:22;;;;;;;8.25;6.97;;;9.30;68.30;;;;;;5040032;28;20058;-73
2020/12/21 08:47:51;;;;;;;8.98;8.10;;;9.10;68.20;;;;;;5032829;28;20025;-76
2020/12/21 08:50:18;;;;;;;11.38;7.88;;;9.10;68.70;;;;;;5035460;28;20244;-75
2020/12/21 08:52:47;;;;;;;9.93;8.40;;;9.10;68.10;;;;;;5033806;28;20033;-73
2020/12/21 08:55:14;;;;;;;10.05;8.48;;;9.00;68.50;;;;;;5034792;28;20040;-73
2020/12/21 08:57:40;;;;;;;10.85;9.05;;;9.00;69.00;;;;;;5033829;28;20096;-73
2020/12/21 09:00:07;;;;;;;10.25;8.82;;;9.00;69.30;;;;;;5035386;28;20446;-73
2020/12/21 09:02:34;;;;;;;10.55;8.85;;;8.90;68.40;;;;;;5027916;28;20080;-73
2020/12/21 09:05:03;;;;;;;10.65;9.55;;;8.80;69.40;;;;;;5035422;28;20056;-76
2020/12/21 09:07:30;;;;;;;13.02;11.77;;;9.00;69.40;;;;;;5018011;28;20053;-74
2020/12/21 09:09:56;;;;;;;16.63;11.40;;;8.90;69.40;;;;;;5034563;28;20032;-74
2020/12/21 09:12:24;;;;;;;12.20;11.10;;;8.90;69.60;;;;;;5033962;28;20100;-74
2020/12/21 09:14:50;;;;;;;16.10;10.45;;;8.90;69.70;;;;;;5036890;28;20118;-73
2020/12/21 09:17:17;;;;;;;13.73;9.98;;;8.90;70.30;;;;;;5032894;28;20036;-75
2020/12/21 09:19:43;;;;;;;15.52;11.20;;;8.90;69.60;;;;;;5034864;28;20036;-74
2020/12/21 09:22:10;;;;;;;13.70;12.40;;;8.80;69.60;;;;;;5032519;28;20112;-74
2020/12/21 09:24:36;;;;;;;14.05;11.90;;;8.80;70.30;;;;;;5031383;28;20044;-73
2020/12/21 09:27:02;;;;;;;16.60;14.50;;;8.70;70.40;;;;;;5030192;28;20029;-73
2020/12/21 09:29:29;;;;;;;14.32;12.93;;;8.80;70.70;;;;;;5032010;28;20025;-73
2020/12/21 09:31:55;;;;;;;15.55;13.63;;;8.80;70.70;;;;;;5034076;28;20029;-74
2020/12/21 09:34:22;;;;;;;18.20;12.32;;;8.90;70.60;;;;;;5017199;28;20029;-74
2020/12/21 09:36:48;;;;;;;18.15;14.70;;;8.90;70.40;;;;;;5034807;28;20025;-73
2020/12/21 09:39:14;;;;;;;14.77;12.57;;;8.90;70.40;;;;;;5017482;28;20026;-73
2020/12/21 09:41:41;;;;;;;13.98;12.45;;;8.90;71.00;;;;;;5035700;28;20026;-75
2020/12/21 09:44:07;;;;;;;13.05;11.82;;;8.90;71.00;;;;;;5032166;28;20120;-73
2020/12/21 09:46:34;;;;;;;15.52;11.02;;;8.90;70.20;;;;;;5035040;28;20109;-73
2020/12/21 09:49:03;;;;;;;13.50;12.30;;;8.80;70.10;;;;;;5034428;28;20124;-74
2020/12/21 09:51:31;;;;;;;12.98;11.52;;;8.80;70.30;;;;;;5034773;28;20080;-74
2020/12/21 09:53:57;;;;;;;19.13;12.95;;;8.70;70.40;;;;;;5037300;28;20088;-74
2020/12/21 09:56:24;;;;;;;11.95;10.85;;;8.60;70.60;;;;;;5020945;28;20021;-75
2020/12/21 09:58:51;;;;;;;13.20;10.40;;;8.50;70.90;;;;;;5018651;28;20363;-73
2020/12/21 10:01:18;;;;;;;14.00;12.50;;;8.30;71.00;;;;;;5037756;28;20055;-73
2020/12/21 10:03:44;;;;;;;14.23;11.20;;;8.30;70.90;;;;;;5038989;28;20097;-73
2020/12/21 10:06:11;;;;;;;11.45;10.07;;;8.30;70.80;;;;;;5021637;28;20106;-73
2020/12/21 10:08:39;;;;;;;10.18;9.10;;;8.20;70.90;;;;;;5038478;28;20097;-73
2020/12/21 10:11:06;;;;;;;8.48;7.65;;;8.20;70.90;;;;;;5037525;28;20033;-74
2020/12/21 10:13:32;;;;;;;11.13;10.13;;;8.10;70.90;;;;;;5038779;28;20033;-74
2020/12/21 10:15:59;;;;;;;10.18;9.27;;;8.10;70.50;;;;;;5019188;28;20029;-74
2020/12/21 10:18:26;;;;;;;9.90;8.88;;;8.10;70.30;;;;;;5032061;28;20444;-74
2020/12/21 10:20:52;;;;;;;14.43;9.15;;;8.10;70.10;;;;;;5038822;28;20060;-74
2020/12/21 10:23:19;;;;;;;9.43;8.43;;;8.00;70.00;;;;;;5020129;28;20030;-73
2020/12/21 10:25:46;;;;;;;10.65;7.28;;;7.90;69.90;;;;;;5037067;28;20026;-74
2020/12/21 10:28:13;;;;;;;9.27;7.72;;;7.90;69.50;;;;;;5033310;28;20100;-74
2020/12/21 10:30:39;;;;;;;9.32;7.13;;;7.80;69.80;;;;;;5017945;28;20343;-74
2020/12/21 10:33:06;;;;;;;8.45;7.75;;;7.80;69.50;;;;;;5020139;28;20040;-74
2020/12/21 10:35:32;;;;;;;9.85;8.95;;;7.80;69.90;;;;;;5018312;28;20032;-73
2020/12/21 10:37:58;;;;;;;10.85;7.43;;;7.80;69.50;;;;;;5036773;28;20088;-73
2020/12/21 10:40:25;;;;;;;13.57;9.35;;;7.70;69.80;;;;;;5037059;28;20025;-74
2020/12/21 10:42:51;;;;;;;10.98;7.93;;;7.60;69.70;;;;;;5027698;28;20410;-74
2020/12/21 10:45:18;;;;;;;9.02;8.23;;;7.60;69.30;;;;;;5023460;28;20040;-74
2020/12/21 10:47:46;;;;;;;8.27;7.47;;;7.60;69.60;;;;;;5032722;28;20307;-74
2020/12/21 10:50:12;;;;;;;7.80;7.10;;;7.50;69.50;;;;;;5037331;28;20036;-74
2020/12/21 10:52:38;;;;;;;13.55;8.98;;;7.50;69.90;;;;;;5037477;28;20156;-73
2020/12/21 10:55:05;;;;;;;9.90;9.00;;;7.60;70.00;;;;;;5020202;28;20029;-74
2020/12/21 10:57:31;;;;;;;14.00;9.27;;;7.70;70.10;;;;;;5035380;28;20021;-73
2020/12/21 10:59:57;;;;;;;10.25;8.82;;;7.80;70.10;;;;;;5036778;28;20025;-73
2020/12/21 11:02:24;;;;;;;9.60;8.60;;;7.80;70.00;;;;;;5020555;28;20037;-73
2020/12/21 11:04:50;;;;;;;9.93;8.85;;;7.70;69.80;;;;;;5037613;28;20026;-73
2020/12/21 11:07:16;;;;;;;11.45;8.75;;;7.60;70.00;;;;;;5037497;28;20017;-72
2020/12/21 11:09:43;;;;;;;12.25;8.43;;;7.50;69.80;;;;;;5034006;28;20451;-72
2020/12/21 11:12:09;;;;;;;8.82;7.97;;;7.40;69.80;;;;;;5019792;28;20068;-73
2020/12/21 11:14:36;;;;;;;10.00;9.10;;;7.40;70.20;;;;;;5037148;28;20029;-75
2020/12/21 11:17:02;;;;;;;9.52;8.63;;;7.50;70.40;;;;;;5036477;28;20026;-75
2020/12/21 11:19:28;;;;;;;10.10;9.10;;;7.50;70.10;;;;;;5036474;28;20018;-73
2020/12/21 11:21:55;;;;;;;12.32;9.93;;;7.40;70.20;;;;;;5019449;28;20025;-74
2020/12/21 11:24:21;;;;;;;12.27;10.02;;;7.30;70.30;;;;;;5035941;28;20029;-73
2020/12/21 11:26:51;;;;;;;12.52;11.30;;;7.40;70.80;;;;;;5037533;28;20037;-73
2020/12/21 11:29:18;;;;;;;12.38;11.18;;;7.60;71.00;;;;;;5037525;28;20408;-75
2020/12/21 11:31:44;;;;;;;15.50;12.55;;;7.60;71.00;;;;;;5037214;28;20033;-73
2020/12/21 11:34:11;;;;;;;17.27;12.88;;;7.50;71.10;;;;;;5036765;28;20040;-74
2020/12/21 11:36:37;;;;;;;13.75;12.35;;;7.50;71.10;;;;;;5018332;28;20022;-73
2020/12/21 11:39:03;;;;;;;16.23;14.63;;;7.50;71.00;;;;;;5018541;28;20025;-73
2020/12/21 11:41:31;;;;;;;19.83;17.40;;;7.60;71.80;;;;;;5034893;28;20386;-75
2020/12/21 11:43:57;;;;;;;22.08;18.88;;;7.70;71.80;;;;;;5036803;28;20271;-74
2020/12/21 11:46:36;;;;;;;25.00;21.42;;;7.70;71.40;;;;;;5036807;28;20406;-74
2020/12/21 11:49:04;;;;;;;23.63;21.10;;;7.70;72.10;;;;;;5036871;28;20029;-74
2020/12/21 11:51:30;;;;;;;22.73;20.45;;;7.70;72.10;;;;;;5035349;28;20033;-73
2020/12/21 11:53:57;;;;;;;24.70;22.10;;;7.80;72.70;;;;;;5036565;28;20033;-74
2020/12/21 11:56:23;;;;;;;25.98;23.30;;;7.80;72.50;;;;;;5034890;28;20028;-74
2020/12/21 11:58:50;;;;;;;22.70;20.30;;;7.90;72.10;;;;;;5035677;28;20026;-74
2020/12/21 12:01:18;;;;;;;24.13;21.45;;;7.90;72.10;;;;;;5036810;28;20087;-74
2020/12/21 12:03:45;;;;;;;25.33;22.90;;;7.80;71.60;;;;;;5036023;28;20033;-73
2020/12/21 12:06:12;;;;;;;26.38;23.38;;;7.80;71.90;;;;;;5030776;28;20029;-73
2020/12/21 12:08:39;;;;;;;28.40;25.40;;;7.80;72.20;;;;;;5035629;28;20033;-75
2020/12/21 12:11:06;;;;;;;28.90;26.08;;;7.90;72.50;;;;;;5020416;28;20033;-76
2020/12/21 12:13:33;;;;;;;28.55;25.65;;;7.90;72.70;;;;;;5036779;28;20033;-75
2020/12/21 12:16:00;;;;;;;29.40;26.13;;;8.00;72.90;;;;;;5034407;28;20351;-73
2020/12/21 12:18:26;;;;;;;28.45;25.55;;;8.00;73.00;;;;;;5033719;28;20064;-74
2020/12/21 12:20:52;;;;;;;28.33;24.63;;;8.00;72.60;;;;;;5035869;28;20022;-73
2020/12/21 12:23:19;;;;;;;29.67;24.08;;;7.90;72.60;;;;;;5036308;28;20083;-73
2020/12/21 12:25:45;;;;;;;26.08;23.48;;;8.00;72.70;;;;;;5035943;28;20030;-74
2020/12/21 12:28:12;;;;;;;24.85;22.52;;;8.00;72.60;;;;;;5035180;28;20458;-74
2020/12/21 12:30:38;;;;;;;24.65;22.35;;;8.00;72.80;;;;;;5027191;28;20037;-73
2020/12/21 12:33:04;;;;;;;25.35;22.88;;;8.10;72.80;;;;;;5036009;28;20029;-74
2020/12/21 12:35:31;;;;;;;21.95;19.60;;;8.00;72.60;;;;;;5035487;28;20094;-73
2020/12/21 12:37:57;;;;;;;23.42;21.00;;;8.00;72.80;;;;;;5030990;28;20022;-73
2020/12/21 12:40:24;;;;;;;23.23;20.95;;;8.00;72.90;;;;;;5032333;28;20355;-73
2020/12/21 12:42:50;;;;;;;20.42;18.40;;;8.10;72.80;;;;;;5018604;28;20018;-73
2020/12/21 12:45:16;;;;;;;20.75;18.65;;;8.00;72.30;;;;;;5036691;28;20036;-73
2020/12/21 12:47:43;;;;;;;20.05;18.13;;;8.10;72.30;;;;;;5036348;28;20025;-73
2020/12/21 12:50:10;;;;;;;23.10;17.27;;;8.00;72.60;;;;;;5036060;28;20030;-73